createdAt,value
2022-11-22T00:02:25.438Z,98962.84
2022-11-22T00:07:29.001Z,98968.10
2022-11-22T00:12:32.482Z,98971.66
2022-11-22T00:17:36.752Z,98970.30
2022-11-22T00:22:44.435Z,98967.67
2022-11-22T00:27:48.557Z,98971.77
2022-11-22T00:32:52.072Z,98975.00
2022-11-22T00:37:55.588Z,98980.88
2022-11-22T00:42:59.104Z,98990.46
2022-11-22T00:48:02.622Z,98994.60
2022-11-22T00:53:06.143Z,98996.02
2022-11-22T00:58:09.549Z,99003.35
2022-11-22T01:03:14.034Z,98996.81
2022-11-22T01:08:17.396Z,98994.20
2022-11-22T01:13:20.916Z,98988.45
2022-11-22T01:18:24.427Z,98988.52
2022-11-22T01:23:28.048Z,98982.85
2022-11-22T01:28:31.563Z,98982.71
2022-11-22T01:33:35.080Z,98988.38
2022-11-22T01:38:38.797Z,98995.08
2022-11-22T01:43:42.210Z,98995.45
2022-11-22T01:48:48.902Z,99002.24
2022-11-22T01:53:56.512Z,99000.61
2022-11-22T01:59:03.917Z,98999.65
2022-11-22T02:04:10.599Z,99002.81
2022-11-22T02:09:15.558Z,99003.85
2022-11-22T02:14:26.214Z,99003.39
2022-11-22T02:19:44.709Z,99003.56
2022-11-22T02:25:03.583Z,99011.02
2022-11-22T02:30:07.539Z,99022.73
2022-11-22T02:35:23.928Z,99027.17
2022-11-22T02:40:31.537Z,99029.22
2022-11-22T02:45:34.952Z,99022.53
2022-11-22T02:50:38.681Z,99021.05
2022-11-22T02:55:42.085Z,99014.06
2022-11-22T03:00:45.674Z,99012.92
2022-11-22T03:05:49.327Z,99014.52
2022-11-22T03:10:52.855Z,99013.78
2022-11-22T03:15:56.557Z,99012.15
2022-11-22T03:21:04.371Z,99005.44
2022-11-22T03:26:12.315Z,99003.89
2022-11-22T03:31:15.703Z,98996.91
2022-11-22T03:36:19.426Z,98998.14
2022-11-22T03:41:22.839Z,99002.88
2022-11-22T03:46:26.353Z,98999.85
2022-11-22T03:51:29.869Z,99000.70
2022-11-22T03:56:33.384Z,98995.75
2022-11-22T04:01:36.852Z,98994.30
2022-11-22T04:06:40.427Z,98996.04
2022-11-22T04:11:43.941Z,98998.00
2022-11-22T04:16:47.346Z,98998.68
2022-11-22T04:21:50.860Z,99004.90
2022-11-22T04:26:54.992Z,98995.44
2022-11-22T04:32:30.761Z,98988.15
2022-11-22T04:37:34.072Z,98998.49
2022-11-22T04:42:56.226Z,99004.08
2022-11-22T04:47:59.643Z,99007.05
2022-11-22T04:53:03.256Z,99012.25
2022-11-22T04:58:06.770Z,99023.29
2022-11-22T05:03:11.191Z,99023.80
2022-11-22T05:08:14.831Z,99022.05
2022-11-22T05:13:19.366Z,99027.09
2022-11-22T05:18:23.732Z,99030.82
2022-11-22T05:23:45.636Z,99036.02
2022-11-22T05:28:49.166Z,99035.73
2022-11-22T05:33:53.909Z,99040.91
2022-11-22T05:38:57.220Z,99049.43
2022-11-22T05:44:00.780Z,99053.13
2022-11-22T05:49:04.358Z,99055.48
2022-11-22T05:54:07.869Z,99059.64
2022-11-22T05:59:11.460Z,99064.79
2022-11-22T06:04:14.900Z,99062.98
2022-11-22T06:09:18.312Z,99072.33
2022-11-22T06:14:21.828Z,99074.13
2022-11-22T06:19:25.247Z,99079.68
2022-11-22T06:24:28.759Z,99084.39
2022-11-22T06:29:32.552Z,99091.40
2022-11-22T06:34:36.505Z,99076.42
2022-11-22T06:39:40.018Z,99074.55
2022-11-22T06:44:43.537Z,99087.88
2022-11-22T06:49:46.949Z,99102.15
2022-11-22T06:54:50.372Z,99104.02
2022-11-22T06:59:53.878Z,99108.23
2022-11-22T07:05:24.034Z,99113.55
2022-11-22T07:10:20.569Z,99109.68
2022-11-22T07:15:24.086Z,99112.80
2022-11-22T07:20:27.497Z,99123.52
2022-11-22T07:25:31.013Z,99132.85
2022-11-22T07:30:34.528Z,99129.76
2022-11-22T07:35:38.147Z,99130.94
2022-11-22T07:40:41.560Z,99124.38
2022-11-22T07:45:44.971Z,99125.92
2022-11-22T07:50:48.282Z,99136.48
2022-11-22T07:55:51.799Z,99138.39
2022-11-22T08:00:55.315Z,99139.34
2022-11-22T08:06:03.377Z,99143.42
2022-11-22T08:11:07.673Z,99150.29
2022-11-22T08:16:13.889Z,99156.45
2022-11-22T08:21:19.006Z,99161.64
2022-11-22T08:26:22.724Z,99159.13
2022-11-22T08:31:27.444Z,99158.59
2022-11-22T08:36:30.980Z,99156.16
2022-11-22T08:41:34.499Z,99158.58
2022-11-22T08:46:38.014Z,99156.98
2022-11-22T08:51:45.527Z,99151.02
2022-11-22T08:56:49.243Z,99148.64
2022-11-22T09:01:52.727Z,99172.25
2022-11-22T09:12:19.860Z,99182.30
2022-11-22T09:17:23.374Z,99193.63
2022-11-22T09:22:28.628Z,99182.91
2022-11-22T09:27:33.886Z,99198.39
2022-11-22T09:32:37.611Z,99196.92
2022-11-22T09:37:41.532Z,99193.23
2022-11-22T09:43:01.845Z,99184.85
2022-11-22T09:48:43.760Z,99181.96
2022-11-22T09:53:47.180Z,99181.94
2022-11-22T09:59:00.003Z,99184.73
2022-11-22T10:04:13.965Z,99178.84
2022-11-22T10:09:33.003Z,99172.36
2022-11-22T10:14:46.186Z,99173.92
2022-11-22T10:20:14.178Z,99193.74
2022-11-22T10:25:44.315Z,99189.48
2022-11-22T10:31:14.419Z,99198.08
2022-11-22T10:36:27.187Z,99195.36
2022-11-22T10:42:16.065Z,99195.85
2022-11-22T10:47:34.418Z,99191.35
2022-11-22T10:52:56.070Z,99194.41
2022-11-22T10:58:05.423Z,99196.63
2022-11-22T11:03:32.798Z,99203.46
2022-11-22T11:14:32.073Z,99208.42
2022-11-22T11:19:42.021Z,99206.79
2022-11-22T11:24:45.546Z,99203.19
2022-11-22T11:30:12.089Z,99203.16
2022-11-22T11:35:16.116Z,99191.83
2022-11-22T11:40:32.273Z,99179.33
2022-11-22T11:45:35.955Z,99176.95
2022-11-22T11:50:39.360Z,99166.47
2022-11-22T11:55:42.772Z,99166.67
2022-11-22T12:00:46.595Z,99167.73
2022-11-22T12:06:14.033Z,99164.18
2022-11-22T12:11:58.653Z,99154.27
2022-11-22T12:17:10.872Z,99157.55
2022-11-22T12:22:48.820Z,99150.73
2022-11-22T12:27:52.104Z,99150.98
2022-11-22T12:33:06.066Z,99138.45
2022-11-22T12:38:15.007Z,99132.09
2022-11-22T12:43:26.100Z,99127.86
2022-11-22T12:48:37.398Z,99133.77
2022-11-22T12:53:44.835Z,99135.20
2022-11-22T12:59:02.146Z,99136.98
2022-11-22T13:04:23.170Z,99142.05
2022-11-22T13:09:36.720Z,99141.92
2022-11-22T13:14:47.814Z,99138.77
2022-11-22T13:19:55.937Z,99146.05
2022-11-22T13:25:11.240Z,99152.93
2022-11-22T13:30:23.980Z,99164.34
2022-11-22T13:35:37.615Z,99173.20
2022-11-22T13:40:52.088Z,99172.30
2022-11-22T13:46:05.331Z,99179.88
2022-11-22T13:51:09.664Z,99179.04
2022-11-22T13:56:15.948Z,99181.36
2022-11-22T14:01:35.089Z,99180.13
2022-11-22T14:06:39.058Z,99185.20
2022-11-22T14:12:04.892Z,99185.05
2022-11-22T14:17:41.519Z,99177.97
2022-11-22T14:23:02.406Z,99172.59
2022-11-22T14:28:21.691Z,99169.03
2022-11-22T14:33:28.303Z,99171.63
2022-11-22T14:38:36.100Z,99170.05
2022-11-22T14:43:41.431Z,99173.52
2022-11-22T14:48:57.053Z,99182.19
2022-11-22T14:54:03.961Z,99181.55
2022-11-22T14:59:29.127Z,99183.35
2022-11-22T15:09:15.255Z,99186.29
2022-11-22T15:10:59.150Z,99187.73
2022-11-22T16:00:10.951Z,99185.62
2022-11-22T16:06:06.705Z,99181.47
2022-11-22T16:10:42.731Z,99187.45
2022-11-22T16:16:12.921Z,99191.23
2022-11-22T16:21:16.626Z,99198.45
2022-11-22T16:26:25.156Z,99205.92
2022-11-22T16:31:32.458Z,99209.68
2022-11-22T16:36:35.868Z,99214.92
2022-11-22T16:41:39.282Z,99219.16
2022-11-22T16:46:43.212Z,99214.73
2022-11-22T16:51:51.368Z,99210.00
2022-11-22T16:56:54.949Z,99205.47
2022-11-22T17:01:59.900Z,99201.31
2022-11-22T17:07:03.381Z,99200.64
2022-11-22T17:12:14.839Z,99196.37
2022-11-22T17:17:19.532Z,99200.78
2022-11-22T17:22:23.279Z,99192.19
2022-11-22T17:27:26.999Z,99194.27
2022-11-22T17:32:30.311Z,99188.82
2022-11-22T17:37:33.826Z,99193.70
2022-11-22T17:42:41.135Z,99198.05
2022-11-22T17:47:45.464Z,99203.48
2022-11-22T17:52:49.195Z,99206.05
2022-11-22T17:57:55.855Z,99203.75
2022-11-22T18:03:03.777Z,99200.60
2022-11-22T18:08:10.486Z,99208.64
2022-11-22T18:13:21.242Z,99214.02
2022-11-22T18:18:48.917Z,99220.67
2022-11-22T18:23:49.190Z,99223.33
2022-11-22T18:29:16.082Z,99228.33
2022-11-22T18:34:16.399Z,99233.89
2022-11-22T18:39:22.061Z,99229.34
2022-11-22T18:44:25.885Z,99219.38
2022-11-22T18:49:29.807Z,99212.86
2022-11-22T18:54:34.109Z,99217.98
2022-11-22T18:59:37.759Z,99215.84
2022-11-22T19:04:41.381Z,99222.02
2022-11-22T19:09:44.792Z,99215.69
2022-11-22T19:14:48.309Z,99223.95
2022-11-22T19:19:59.302Z,99224.35
2022-11-22T19:25:02.711Z,99235.02
2022-11-22T19:30:06.976Z,99245.75
2022-11-22T19:35:10.358Z,99248.83
2022-11-22T19:40:14.385Z,99254.31
2022-11-22T19:45:17.800Z,99256.35
2022-11-22T19:50:21.313Z,99259.84
2022-11-22T19:55:24.829Z,99262.56
2022-11-22T20:00:28.972Z,99266.56
2022-11-22T20:05:33.089Z,99268.02
2022-11-22T20:10:38.658Z,99273.35
2022-11-22T20:15:41.942Z,99270.78
2022-11-22T20:20:45.381Z,99280.12
2022-11-22T20:25:48.891Z,99287.64
2022-11-22T20:30:52.201Z,99286.32
2022-11-22T20:36:04.731Z,99292.14
2022-11-22T20:41:10.781Z,99297.85
2022-11-22T20:46:16.883Z,99294.13
2022-11-22T20:51:26.016Z,99291.24
2022-11-22T20:56:29.443Z,99291.17
2022-11-22T21:01:33.693Z,99291.57
2022-11-22T21:06:37.291Z,99297.91
2022-11-22T21:11:44.087Z,99303.00
2022-11-22T21:16:47.599Z,99303.33
2022-11-22T21:21:51.134Z,99304.20
2022-11-22T21:26:54.528Z,99299.78
2022-11-22T21:31:57.940Z,99293.00
2022-11-22T21:37:01.459Z,99290.85
2022-11-22T21:42:05.179Z,99288.11
2022-11-22T21:47:08.691Z,99289.98
2022-11-22T21:52:12.106Z,99285.83
2022-11-22T21:57:15.519Z,99284.20
2022-11-22T22:02:19.037Z,99286.27
2022-11-22T22:07:50.847Z,99281.27
2022-11-22T22:12:46.033Z,99283.48
2022-11-22T22:17:53.849Z,99296.40
2022-11-22T22:22:57.263Z,99301.02
2022-11-22T22:28:00.880Z,99296.88
2022-11-22T22:33:04.396Z,99294.19
2022-11-22T22:38:07.911Z,99295.80
2022-11-22T22:43:11.331Z,99294.23
2022-11-22T22:48:14.841Z,99295.89
2022-11-22T22:53:18.356Z,99296.05
2022-11-22T22:58:22.074Z,99293.65
2022-11-22T23:03:25.834Z,99289.39
2022-11-22T23:08:29.210Z,99286.45
2022-11-22T23:13:34.166Z,99285.36
2022-11-22T23:18:43.551Z,99286.97
2022-11-22T23:23:46.925Z,99283.75
2022-11-22T23:28:51.159Z,99283.42
2022-11-22T23:33:54.877Z,99283.59
2022-11-22T23:38:58.290Z,99281.25
2022-11-22T23:44:01.702Z,99277.63
2022-11-22T23:49:06.326Z,99269.88
2022-11-22T23:54:10.782Z,99257.64
2022-11-22T23:59:14.300Z,99252.36
